sensor_id;sensor_type;location;lat;lon;timestamp;pressure;altitude;pressure_sealevel;temperature;humidity
70127;BME280;57491;42.694;23.314;2024-01-15T00:00:35;94563.81;;;2.15;62.39
70127;BME280;57491;42.694;23.314;2024-01-15T00:03:02;94573.00;;;2.08;62.44
70127;BME280;57491;42.694;23.314;2024-01-15T00:05:29;94557.25;;;2.03;60.87
70127;BME280;57491;42.694;23.314;2024-01-15T00:07:57;94558.03;;;2.04;63.13
70127;BME280;57491;42.694;23.314;2024-01-15T00:10:24;94553.34;;;1.99;59.75
70127;BME280;57491;42.694;23.314;2024-01-15T00:12:51;94556.97;;;2.06;61.92
70127;BME280;57491;42.694;23.314;2024-01-15T00:15:19;94557.91;;;2.05;63.77
70127;BME280;57491;42.694;23.314;2024-01-15T00:17:47;94551.16;;;2.04;62.42
70127;BME280;57491;42.694;23.314;2024-01-15T00:20:15;94563.34;;;1.93;64.55
70127;BME280;57491;42.694;23.314;2024-01-15T00:22:42;94548.81;;;1.84;61.97
70127;BME280;57491;42.694;23.314;2024-01-15T00:25:09;94552.41;;;1.91;63.48
70127;BME280;57491;42.694;23.314;2024-01-15T00:27:36;94546.66;;;1.79;61.02
70127;BME280;57491;42.694;23.314;2024-01-15T00:30:05;94569.31;;;1.84;61.63
70127;BME280;57491;42.694;23.314;2024-01-15T00:32:32;94550.16;;;1.78;59.54
70127;BME280;57491;42.694;23.314;2024-01-15T00:35:01;94560.03;;;1.73;59.35
70127;BME280;57491;42.694;23.314;2024-01-15T00:37:29;94558.94;;;1.75;62.32
70127;BME280;57491;42.694;23.314;2024-01-15T00:39:56;94557.75;;;1.70;60.29
70127;BME280;57491;42.694;23.314;2024-01-15T00:42:23;94554.91;;;1.73;63.51
70127;BME280;57491;42.694;23.314;2024-01-15T00:44:51;94553.97;;;1.74;63.80
70127;BME280;57491;42.694;23.314;2024-01-15T00:47:18;94552.03;;;1.76;62.13
70127;BME280;57491;42.694;23.314;2024-01-15T00:49:46;94554.34;;;1.79;60.92
70127;BME280;57491;42.694;23.314;2024-01-15T00:52:15;94533.75;;;1.61;59.89
70127;BME280;57491;42.694;23.314;2024-01-15T00:54:43;94559.72;;;1.76;60.76
70127;BME280;57491;42.694;23.314;2024-01-15T00:57:10;94553.69;;;1.67;59.67
70127;BME280;57491;42.694;23.314;2024-01-15T00:59:37;94559.63;;;1.68;62.48
70127;BME280;57491;42.694;23.314;2024-01-15T01:02:05;94557.22;;;1.66;62.82
70127;BME280;57491;42.694;23.314;2024-01-15T01:04:32;94544.53;;;1.55;61.33
70127;BME280;57491;42.694;23.314;2024-01-15T01:06:59;94550.72;;;1.62;63.53
70127;BME280;57491;42.694;23.314;2024-01-15T01:09:28;94559.91;;;1.65;63.41
70127;BME280;57491;42.694;23.314;2024-01-15T01:11:56;94532.53;;;1.56;63.68
70127;BME280;57491;42.694;23.314;2024-01-15T01:14:23;94544.53;;;1.65;61.76
70127;BME280;57491;42.694;23.314;2024-01-15T01:16:50;94549.91;;;1.71;63.21
70127;BME280;57491;42.694;23.314;2024-01-15T01:19:18;94546.41;;;1.63;60.39
70127;BME280;57491;42.694;23.314;2024-01-15T01:21:45;94529.16;;;1.65;62.51
70127;BME280;57491;42.694;23.314;2024-01-15T01:24:12;94547.88;;;1.75;64.03
70127;BME280;57491;42.694;23.314;2024-01-15T01:26:41;94541.00;;;1.75;63.37
70127;BME280;57491;42.694;23.314;2024-01-15T01:29:08;94536.72;;;1.66;63.28
70127;BME280;57491;42.694;23.314;2024-01-15T01:31:35;94533.44;;;1.74;62.57
70127;BME280;57491;42.694;23.314;2024-01-15T01:34:03;94534.41;;;1.73;64.21
70127;BME280;57491;42.694;23.314;2024-01-15T01:36:31;94523.91;;;1.66;64.84
70127;BME280;57491;42.694;23.314;2024-01-15T01:38:58;94515.66;;;1.63;63.93
70127;BME280;57491;42.694;23.314;2024-01-15T01:41:26;94521.88;;;1.70;64.73
70127;BME280;57491;42.694;23.314;2024-01-15T01:43:55;94508.66;;;1.65;63.87
70127;BME280;57491;42.694;23.314;2024-01-15T01:46:23;94523.75;;;1.68;63.63
70127;BME280;57491;42.694;23.314;2024-01-15T01:48:51;94528.88;;;1.68;62.18
70127;BME280;57491;42.694;23.314;2024-01-15T01:51:20;94509.59;;;1.64;63.52
70127;BME280;57491;42.694;23.314;2024-01-15T01:53:49;94527.00;;;1.70;62.48
70127;BME280;57491;42.694;23.314;2024-01-15T01:56:16;94521.88;;;1.70;62.94
70127;BME280;57491;42.694;23.314;2024-01-15T01:58:45;94513.09;;;1.63;62.47
70127;BME280;57491;42.694;23.314;2024-01-15T02:01:15;94495.47;;;1.50;60.93
70127;BME280;57491;42.694;23.314;2024-01-15T02:03:43;94510.31;;;1.56;61.50
70127;BME280;57491;42.694;23.314;2024-01-15T02:06:10;94497.38;;;1.48;60.37
70127;BME280;57491;42.694;23.314;2024-01-15T02:08:38;94512.19;;;1.45;59.63
70127;BME280;57491;42.694;23.314;2024-01-15T02:11:05;94515.72;;;1.34;62.71
70127;BME280;57491;42.694;23.314;2024-01-15T02:13:32;94511.81;;;1.40;63.63
70127;BME280;57491;42.694;23.314;2024-01-15T02:16:00;94497.41;;;1.39;61.78
70127;BME280;57491;42.694;23.314;2024-01-15T02:18:29;94490.88;;;1.44;62.83
70127;BME280;57491;42.694;23.314;2024-01-15T02:20:56;94488.59;;;1.51;61.42
70127;BME280;57491;42.694;23.314;2024-01-15T02:23:24;94464.63;;;1.42;61.30
70127;BME280;57491;42.694;23.314;2024-01-15T02:25:52;94460.31;;;1.43;60.18
70127;BME280;57491;42.694;23.314;2024-01-15T02:28:19;94451.94;;;1.41;59.30
70127;BME280;57491;42.694;23.314;2024-01-15T02:30:46;94449.28;;;1.32;59.31
70127;BME280;57491;42.694;23.314;2024-01-15T02:33:14;94436.50;;;1.23;62.52
70127;BME280;57491;42.694;23.314;2024-01-15T02:35:41;94444.56;;;1.28;61.73
70127;BME280;57491;42.694;23.314;2024-01-15T02:38:08;94442.13;;;1.26;60.49
70127;BME280;57491;42.694;23.314;2024-01-15T02:40:39;94443.53;;;1.11;60.55
70127;BME280;57491;42.694;23.314;2024-01-15T02:43:07;94443.09;;;1.25;63.31
70127;BME280;57491;42.694;23.314;2024-01-15T02:45:34;94443.44;;;1.40;64.66
70127;BME280;57491;42.694;23.314;2024-01-15T02:48:01;94447.47;;;1.52;64.99
70127;BME280;57491;42.694;23.314;2024-01-15T02:50:29;94447.72;;;1.59;65.02
70127;BME280;57491;42.694;23.314;2024-01-15T02:52:58;94449.59;;;1.66;65.08
70127;BME280;57491;42.694;23.314;2024-01-15T02:55:25;94451.75;;;1.71;66.09
70127;BME280;57491;42.694;23.314;2024-01-15T02:57:56;94448.63;;;1.67;61.75
70127;BME280;57491;42.694;23.314;2024-01-15T03:00:23;94443.75;;;1.74;64.49
70127;BME280;57491;42.694;23.314;2024-01-15T03:02:51;94433.69;;;1.63;62.74
70127;BME280;57491;42.694;23.314;2024-01-15T03:05:18;94444.22;;;1.60;63.82
70127;BME280;57491;42.694;23.314;2024-01-15T03:07:46;94442.34;;;1.52;64.61
70127;BME280;57491;42.694;23.314;2024-01-15T03:10:13;94451.53;;;1.45;61.76
70127;BME280;57491;42.694;23.314;2024-01-15T03:12:40;94442.69;;;1.30;61.96
70127;BME280;57491;42.694;23.314;2024-01-15T03:15:09;94439.72;;;1.34;63.55
70127;BME280;57491;42.694;23.314;2024-01-15T03:17:37;94431.25;;;1.24;63.15
70127;BME280;57491;42.694;23.314;2024-01-15T03:20:05;94429.22;;;1.18;62.64
70127;BME280;57491;42.694;23.314;2024-01-15T03:22:33;94431.66;;;1.20;63.73
70127;BME280;57491;42.694;23.314;2024-01-15T03:25:00;94428.41;;;1.18;62.67
70127;BME280;57491;42.694;23.314;2024-01-15T03:27:27;94435.97;;;1.19;61.88
70127;BME280;57491;42.694;23.314;2024-01-15T03:29:55;94426.00;;;1.16;61.95
70127;BME280;57491;42.694;23.314;2024-01-15T03:32:24;94420.88;;;1.16;61.79
70127;BME280;57491;42.694;23.314;2024-01-15T03:34:51;94421.81;;;1.15;61.81
70127;BME280;57491;42.694;23.314;2024-01-15T03:37:18;94424.50;;;1.23;62.12
70127;BME280;57491;42.694;23.314;2024-01-15T03:39:46;94421.41;;;1.29;61.51
70127;BME280;57491;42.694;23.314;2024-01-15T03:42:13;94418.66;;;1.41;64.51
70127;BME280;57491;42.694;23.314;2024-01-15T03:44:41;94412.47;;;1.43;62.14
70127;BME280;57491;42.694;23.314;2024-01-15T03:47:09;94411.06;;;1.49;63.29
70127;BME280;57491;42.694;23.314;2024-01-15T03:49:37;94421.88;;;1.52;62.66
70127;BME280;57491;42.694;23.314;2024-01-15T03:52:06;94418.53;;;1.42;62.84
70127;BME280;57491;42.694;23.314;2024-01-15T03:54:33;94381.94;;;1.13;62.45
70127;BME280;57491;42.694;23.314;2024-01-15T03:57:01;94421.81;;;1.25;61.91
70127;BME280;57491;42.694;23.314;2024-01-15T03:59:28;94417.34;;;1.17;61.29
70127;BME280;57491;42.694;23.314;2024-01-15T04:01:55;94421.13;;;1.23;62.31
70127;BME280;57491;42.694;23.314;2024-01-15T04:04:23;94415.19;;;1.22;59.89
70127;BME280;57491;42.694;23.314;2024-01-15T04:06:51;94390.16;;;1.16;60.95
70127;BME280;57491;42.694;23.314;2024-01-15T04:09:19;94403.38;;;1.21;63.07
70127;BME280;57491;42.694;23.314;2024-01-15T04:11:46;94400.50;;;1.24;62.63
70127;BME280;57491;42.694;23.314;2024-01-15T04:14:13;94405.75;;;1.23;60.87
70127;BME280;57491;42.694;23.314;2024-01-15T04:16:41;94396.75;;;1.19;59.51
70127;BME280;57491;42.694;23.314;2024-01-15T04:19:08;94401.75;;;1.20;61.81
70127;BME280;57491;42.694;23.314;2024-01-15T04:21:35;94404.00;;;1.23;60.94
70127;BME280;57491;42.694;23.314;2024-01-15T04:24:04;94397.16;;;1.24;64.54
70127;BME280;57491;42.694;23.314;2024-01-15T04:26:32;94397.66;;;1.27;64.06
70127;BME280;57491;42.694;23.314;2024-01-15T04:28:59;94387.03;;;1.22;62.51
70127;BME280;57491;42.694;23.314;2024-01-15T04:31:26;94395.13;;;1.18;59.05
70127;BME280;57491;42.694;23.314;2024-01-15T04:33:54;94399.91;;;1.03;60.33
70127;BME280;57491;42.694;23.314;2024-01-15T04:36:21;94398.81;;;0.96;59.75
70127;BME280;57491;42.694;23.314;2024-01-15T04:38:48;94403.13;;;0.86;59.92
70127;BME280;57491;42.694;23.314;2024-01-15T04:41:17;94392.13;;;0.85;64.24
70127;BME280;57491;42.694;23.314;2024-01-15T04:43:44;94394.38;;;0.88;62.77
70127;BME280;57491;42.694;23.314;2024-01-15T04:46:12;94388.56;;;0.96;63.60
70127;BME280;57491;42.694;23.314;2024-01-15T04:48:39;94383.47;;;0.86;61.07
70127;BME280;57491;42.694;23.314;2024-01-15T04:51:08;94385.91;;;0.88;62.48
70127;BME280;57491;42.694;23.314;2024-01-15T04:53:36;94389.94;;;0.90;61.28
70127;BME280;57491;42.694;23.314;2024-01-15T04:56:04;94384.16;;;0.98;62.71
70127;BME280;57491;42.694;23.314;2024-01-15T04:58:33;94360.31;;;0.98;63.98
70127;BME280;57491;42.694;23.314;2024-01-15T05:01:00;94377.63;;;1.04;63.60
70127;BME280;57491;42.694;23.314;2024-01-15T05:03:28;94333.53;;;0.73;64.09
70127;BME280;57491;42.694;23.314;2024-01-15T05:05:55;94370.22;;;1.10;64.43
70127;BME280;57491;42.694;23.314;2024-01-15T05:08:22;94370.22;;;1.10;64.14
70127;BME280;57491;42.694;23.314;2024-01-15T05:10:50;94378.00;;;1.18;64.71
70127;BME280;57491;42.694;23.314;2024-01-15T05:13:17;94366.16;;;1.17;64.60
70127;BME280;57491;42.694;23.314;2024-01-15T05:15:46;94363.50;;;1.09;63.64
70127;BME280;57491;42.694;23.314;2024-01-15T05:18:13;94371.19;;;1.00;62.33
70127;BME280;57491;42.694;23.314;2024-01-15T05:20:40;94368.50;;;1.01;63.99
70127;BME280;57491;42.694;23.314;2024-01-15T05:23:08;94368.63;;;1.00;62.46
70127;BME280;57491;42.694;23.314;2024-01-15T05:25:35;94368.81;;;0.88;59.88
70127;BME280;57491;42.694;23.314;2024-01-15T05:28:02;94370.00;;;0.94;62.46
70127;BME280;57491;42.694;23.314;2024-01-15T05:30:30;94374.31;;;0.94;61.35
70127;BME280;57491;42.694;23.314;2024-01-15T05:32:58;94381.28;;;1.01;63.08
70127;BME280;57491;42.694;23.314;2024-01-15T05:35:27;94362.16;;;1.05;62.76
70127;BME280;57491;42.694;23.314;2024-01-15T05:37:54;94346.28;;;1.02;64.18
70127;BME280;57491;42.694;23.314;2024-01-15T05:40:21;94359.72;;;1.04;63.33
70127;BME280;57491;42.694;23.314;2024-01-15T05:42:49;94366.47;;;1.05;60.86
70127;BME280;57491;42.694;23.314;2024-01-15T05:45:16;94361.91;;;0.99;60.24
70127;BME280;57491;42.694;23.314;2024-01-15T05:47:43;94358.66;;;1.06;59.98
70127;BME280;57491;42.694;23.314;2024-01-15T05:50:12;94337.63;;;1.12;62.52
70127;BME280;57491;42.694;23.314;2024-01-15T05:52:40;94337.09;;;1.09;60.54
70127;BME280;57491;42.694;23.314;2024-01-15T05:55:08;94328.22;;;1.03;62.11
70127;BME280;57491;42.694;23.314;2024-01-15T05:57:36;94331.69;;;1.12;62.70
70127;BME280;57491;42.694;23.314;2024-01-15T06:00:04;94334.25;;;1.12;61.91
70127;BME280;57491;42.694;23.314;2024-01-15T06:02:32;94354.19;;;1.08;60.41
70127;BME280;57491;42.694;23.314;2024-01-15T06:05:00;94362.97;;;1.06;59.97
70127;BME280;57491;42.694;23.314;2024-01-15T06:07:30;94361.31;;;1.14;62.98
70127;BME280;57491;42.694;23.314;2024-01-15T06:09:57;94339.09;;;1.15;64.24
70127;BME280;57491;42.694;23.314;2024-01-15T06:12:24;94370.75;;;1.14;60.18
70127;BME280;57491;42.694;23.314;2024-01-15T06:14:53;94360.94;;;1.09;62.81
70127;BME280;57491;42.694;23.314;2024-01-15T06:17:21;94349.66;;;1.02;62.11
70127;BME280;57491;42.694;23.314;2024-01-15T06:19:48;94359.47;;;1.07;63.51
70127;BME280;57491;42.694;23.314;2024-01-15T06:22:15;94343.28;;;1.06;62.36
70127;BME280;57491;42.694;23.314;2024-01-15T06:24:44;94332.22;;;1.15;63.35
70127;BME280;57491;42.694;23.314;2024-01-15T06:27:11;94321.66;;;1.28;64.49
70127;BME280;57491;42.694;23.314;2024-01-15T06:29:38;94338.50;;;1.30;60.53
70127;BME280;57491;42.694;23.314;2024-01-15T06:32:05;94341.56;;;1.44;60.11
70127;BME280;57491;42.694;23.314;2024-01-15T06:34:33;94327.97;;;1.33;58.61
70127;BME280;57491;42.694;23.314;2024-01-15T06:37:00;94349.59;;;1.49;60.11
70127;BME280;57491;42.694;23.314;2024-01-15T06:39:28;94350.31;;;1.68;64.28
70127;BME280;57491;42.694;23.314;2024-01-15T06:41:56;94344.84;;;1.81;61.68
70127;BME280;57491;42.694;23.314;2024-01-15T06:44:24;94342.66;;;1.86;59.06
70127;BME280;57491;42.694;23.314;2024-01-15T06:46:51;94339.59;;;1.83;57.69
70127;BME280;57491;42.694;23.314;2024-01-15T06:49:23;94352.47;;;1.91;57.33
70127;BME280;57491;42.694;23.314;2024-01-15T06:51:50;94340.78;;;1.88;56.74
70127;BME280;57491;42.694;23.314;2024-01-15T06:54:18;94349.03;;;1.82;56.77
70127;BME280;57491;42.694;23.314;2024-01-15T06:56:45;94351.28;;;1.85;57.76
70127;BME280;57491;42.694;23.314;2024-01-15T06:59:14;94362.81;;;1.99;58.63
70127;BME280;57491;42.694;23.314;2024-01-15T07:01:41;94367.84;;;2.18;57.91
70127;BME280;57491;42.694;23.314;2024-01-15T07:04:08;94362.41;;;2.21;58.61
70127;BME280;57491;42.694;23.314;2024-01-15T07:06:35;94347.63;;;2.33;60.46
70127;BME280;57491;42.694;23.314;2024-01-15T07:09:03;94341.53;;;2.34;57.87
70127;BME280;57491;42.694;23.314;2024-01-15T07:11:31;94353.38;;;2.52;58.92
70127;BME280;57491;42.694;23.314;2024-01-15T07:13:59;94360.13;;;2.53;55.60
70127;BME280;57491;42.694;23.314;2024-01-15T07:16:27;94365.50;;;2.42;55.03
70127;BME280;57491;42.694;23.314;2024-01-15T07:18:54;94363.81;;;2.33;56.05
70127;BME280;57491;42.694;23.314;2024-01-15T07:21:22;94349.06;;;2.17;55.87
70127;BME280;57491;42.694;23.314;2024-01-15T07:23:49;94357.50;;;2.28;58.65
70127;BME280;57491;42.694;23.314;2024-01-15T07:26:16;94349.88;;;2.36;58.39
70127;BME280;57491;42.694;23.314;2024-01-15T07:28:43;94353.19;;;2.46;58.80
70127;BME280;57491;42.694;23.314;2024-01-15T07:31:11;94341.78;;;2.66;60.66
70127;BME280;57491;42.694;23.314;2024-01-15T07:33:39;94342.25;;;2.79;59.24
70127;BME280;57491;42.694;23.314;2024-01-15T07:36:07;94343.09;;;2.88;60.47
70127;BME280;57491;42.694;23.314;2024-01-15T07:38:34;94347.03;;;3.00;59.76
70127;BME280;57491;42.694;23.314;2024-01-15T07:41:19;94353.91;;;2.99;56.06
70127;BME280;57491;42.694;23.314;2024-01-15T07:43:50;94347.38;;;3.05;58.16
70127;BME280;57491;42.694;23.314;2024-01-15T07:46:23;94346.44;;;3.06;54.79
70127;BME280;57491;42.694;23.314;2024-01-15T07:48:55;94335.25;;;3.15;56.97
70127;BME280;57491;42.694;23.314;2024-01-15T07:51:24;94350.81;;;3.13;54.46
70127;BME280;57491;42.694;23.314;2024-01-15T07:53:53;94335.56;;;3.20;55.90
70127;BME280;57491;42.694;23.314;2024-01-15T07:56:20;94362.84;;;3.47;55.14
70127;BME280;57491;42.694;23.314;2024-01-15T07:58:48;94346.34;;;3.49;53.33
70127;BME280;57491;42.694;23.314;2024-01-15T08:01:15;94315.53;;;3.66;52.97
70127;BME280;57491;42.694;23.314;2024-01-15T08:03:43;94317.19;;;3.75;52.95
70127;BME280;57491;42.694;23.314;2024-01-15T08:06:11;94318.19;;;3.82;53.51
70127;BME280;57491;42.694;23.314;2024-01-15T08:08:39;94339.72;;;3.89;51.60
70127;BME280;57491;42.694;23.314;2024-01-15T08:11:06;94340.88;;;3.86;52.39
70127;BME280;57491;42.694;23.314;2024-01-15T08:13:33;94349.88;;;3.90;52.05
70127;BME280;57491;42.694;23.314;2024-01-15T08:16:00;94341.16;;;3.83;51.86
70127;BME280;57491;42.694;23.314;2024-01-15T08:18:28;94341.56;;;4.04;53.68
70127;BME280;57491;42.694;23.314;2024-01-15T08:20:55;94337.88;;;4.15;54.42
70127;BME280;57491;42.694;23.314;2024-01-15T08:23:24;94355.41;;;4.28;53.16
70127;BME280;57491;42.694;23.314;2024-01-15T08:25:53;94358.63;;;4.22;52.42
70127;BME280;57491;42.694;23.314;2024-01-15T08:28:21;94359.59;;;4.21;54.33
70127;BME280;57491;42.694;23.314;2024-01-15T08:30:48;94351.59;;;4.40;51.65
70127;BME280;57491;42.694;23.314;2024-01-15T08:33:15;94335.34;;;4.56;50.24
70127;BME280;57491;42.694;23.314;2024-01-15T08:35:44;94326.50;;;4.58;50.48
70127;BME280;57491;42.694;23.314;2024-01-15T08:38:11;94324.75;;;4.59;50.59
70127;BME280;57491;42.694;23.314;2024-01-15T08:40:40;94316.22;;;4.66;50.86
70127;BME280;57491;42.694;23.314;2024-01-15T08:43:07;94320.69;;;4.88;52.00
70127;BME280;57491;42.694;23.314;2024-01-15T08:45:34;94311.31;;;5.12;49.69
70127;BME280;57491;42.694;23.314;2024-01-15T08:48:02;94315.78;;;5.34;52.87
70127;BME280;57491;42.694;23.314;2024-01-15T08:50:29;94291.28;;;5.38;50.76
70127;BME280;57491;42.694;23.314;2024-01-15T08:52:58;94317.50;;;5.50;51.23
70127;BME280;57491;42.694;23.314;2024-01-15T08:55:25;94316.34;;;5.60;50.05
70127;BME280;57491;42.694;23.314;2024-01-15T08:57:54;94306.38;;;5.57;50.60
70127;BME280;57491;42.694;23.314;2024-01-15T09:00:22;94291.66;;;5.66;48.71
70127;BME280;57491;42.694;23.314;2024-01-15T09:02:49;94286.34;;;5.59;48.13
70127;BME280;57491;42.694;23.314;2024-01-15T09:05:16;94292.50;;;5.58;50.58
70127;BME280;57491;42.694;23.314;2024-01-15T09:07:44;94296.69;;;5.59;50.32
70127;BME280;57491;42.694;23.314;2024-01-15T09:10:11;94272.00;;;5.65;51.47
70127;BME280;57491;42.694;23.314;2024-01-15T09:12:39;94263.25;;;5.74;49.58
70127;BME280;57491;42.694;23.314;2024-01-15T09:15:10;94254.03;;;5.79;48.41
70127;BME280;57491;42.694;23.314;2024-01-15T09:17:38;94235.78;;;5.81;48.84
70127;BME280;57491;42.694;23.314;2024-01-15T09:20:09;94249.31;;;5.91;49.81
70127;BME280;57491;42.694;23.314;2024-01-15T09:22:38;94242.81;;;6.03;48.14
70127;BME280;57491;42.694;23.314;2024-01-15T09:25:07;94241.53;;;6.22;47.74
70127;BME280;57491;42.694;23.314;2024-01-15T09:27:35;94228.63;;;6.22;48.60
70127;BME280;57491;42.694;23.314;2024-01-15T09:30:03;94238.41;;;6.12;50.40
70127;BME280;57491;42.694;23.314;2024-01-15T09:32:32;94226.53;;;6.03;49.81
70127;BME280;57491;42.694;23.314;2024-01-15T09:34:59;94229.13;;;5.95;49.43
70127;BME280;57491;42.694;23.314;2024-01-15T09:37:27;94226.44;;;5.88;50.36
70127;BME280;57491;42.694;23.314;2024-01-15T09:39:54;94220.84;;;5.76;49.20
70127;BME280;57491;42.694;23.314;2024-01-15T09:42:22;94200.38;;;5.75;49.99
70127;BME280;57491;42.694;23.314;2024-01-15T09:44:52;94209.13;;;5.97;51.87
70127;BME280;57491;42.694;23.314;2024-01-15T09:47:20;94201.69;;;6.02;50.47
70127;BME280;57491;42.694;23.314;2024-01-15T09:49:52;94189.66;;;5.94;48.43
70127;BME280;57491;42.694;23.314;2024-01-15T09:52:19;94195.59;;;5.95;50.87
70127;BME280;57491;42.694;23.314;2024-01-15T09:54:47;94175.66;;;5.89;50.96
70127;BME280;57491;42.694;23.314;2024-01-15T09:57:16;94172.50;;;6.01;48.02
70127;BME280;57491;42.694;23.314;2024-01-15T09:59:43;94160.47;;;6.98;47.40
70127;BME280;57491;42.694;23.314;2024-01-15T10:02:13;94166.91;;;8.65;44.56
70127;BME280;57491;42.694;23.314;2024-01-15T10:04:44;94166.50;;;8.96;42.83
70127;BME280;57491;42.694;23.314;2024-01-15T10:07:15;94170.06;;;9.23;40.84
70127;BME280;57491;42.694;23.314;2024-01-15T10:09:44;94161.91;;;10.00;40.46
70127;BME280;57491;42.694;23.314;2024-01-15T10:12:12;94151.38;;;11.51;37.18
70127;BME280;57491;42.694;23.314;2024-01-15T10:14:40;94139.94;;;13.20;33.74
70127;BME280;57491;42.694;23.314;2024-01-15T10:17:12;94139.34;;;15.37;30.29
70127;BME280;57491;42.694;23.314;2024-01-15T10:19:41;94122.00;;;16.78;27.79
70127;BME280;57491;42.694;23.314;2024-01-15T10:22:08;94122.28;;;18.28;25.74
70127;BME280;57491;42.694;23.314;2024-01-15T10:24:37;94121.13;;;19.15;24.02
70127;BME280;57491;42.694;23.314;2024-01-15T10:27:07;94111.78;;;20.01;22.54
70127;BME280;57491;42.694;23.314;2024-01-15T10:29:36;94093.88;;;20.24;21.91
70127;BME280;57491;42.694;23.314;2024-01-15T10:32:06;94104.44;;;20.24;22.08
70127;BME280;57491;42.694;23.314;2024-01-15T10:34:37;94095.78;;;20.74;21.51
70127;BME280;57491;42.694;23.314;2024-01-15T10:37:07;94107.47;;;19.70;21.60
70127;BME280;57491;42.694;23.314;2024-01-15T10:39:36;94082.69;;;18.45;23.01
70127;BME280;57491;42.694;23.314;2024-01-15T10:42:06;94100.50;;;18.65;23.11
70127;BME280;57491;42.694;23.314;2024-01-15T10:44:33;94105.81;;;19.49;22.09
70127;BME280;57491;42.694;23.314;2024-01-15T10:47:00;94092.47;;;19.81;21.80
70127;BME280;57491;42.694;23.314;2024-01-15T10:49:28;94092.81;;;20.20;21.44
70127;BME280;57491;42.694;23.314;2024-01-15T10:51:59;94069.06;;;20.15;21.55
70127;BME280;57491;42.694;23.314;2024-01-15T10:54:27;94071.38;;;19.24;21.97
70127;BME280;57491;42.694;23.314;2024-01-15T10:56:56;94077.72;;;17.90;23.65
70127;BME280;57491;42.694;23.314;2024-01-15T10:59:24;94076.00;;;16.75;24.89
70127;BME280;57491;42.694;23.314;2024-01-15T11:01:52;94078.34;;;15.93;25.64
70127;BME280;57491;42.694;23.314;2024-01-15T11:04:20;94072.94;;;15.03;27.02
70127;BME280;57491;42.694;23.314;2024-01-15T11:06:50;94060.84;;;14.91;27.08
70127;BME280;57491;42.694;23.314;2024-01-15T11:09:17;94070.53;;;15.02;26.77
70127;BME280;57491;42.694;23.314;2024-01-15T11:11:46;94057.13;;;15.38;25.98
70127;BME280;57491;42.694;23.314;2024-01-15T11:14:38;94056.97;;;15.56;26.01
70127;BME280;57491;42.694;23.314;2024-01-15T11:17:06;94038.81;;;15.27;25.95
70127;BME280;57491;42.694;23.314;2024-01-15T11:19:37;94031.53;;;14.77;26.65
70127;BME280;57491;42.694;23.314;2024-01-15T11:22:08;94042.91;;;14.71;26.78
70127;BME280;57491;42.694;23.314;2024-01-15T11:24:37;94039.16;;;14.55;27.53
70127;BME280;57491;42.694;23.314;2024-01-15T11:27:05;94041.22;;;14.42;27.78
70127;BME280;57491;42.694;23.314;2024-01-15T11:29:32;94007.50;;;14.10;28.58
70127;BME280;57491;42.694;23.314;2024-01-15T11:32:05;94041.94;;;14.07;29.74
70127;BME280;57491;42.694;23.314;2024-01-15T11:35:09;94042.63;;;13.91;28.78
70127;BME280;57491;42.694;23.314;2024-01-15T11:37:56;94037.75;;;13.65;29.04
70127;BME280;57491;42.694;23.314;2024-01-15T11:40:37;94033.56;;;13.34;29.43
70127;BME280;57491;42.694;23.314;2024-01-15T11:43:05;94021.47;;;12.85;30.14
70127;BME280;57491;42.694;23.314;2024-01-15T11:45:34;94020.09;;;12.46;30.72
70127;BME280;57491;42.694;23.314;2024-01-15T11:48:10;94024.22;;;12.11;31.52
70127;BME280;57491;42.694;23.314;2024-01-15T11:50:41;94022.63;;;11.85;32.79
70127;BME280;57491;42.694;23.314;2024-01-15T11:53:21;94017.31;;;11.67;32.55
70127;BME280;57491;42.694;23.314;2024-01-15T11:55:58;94020.69;;;11.42;32.43
70127;BME280;57491;42.694;23.314;2024-01-15T11:58:29;94004.06;;;10.99;34.14
70127;BME280;57491;42.694;23.314;2024-01-15T12:00:58;94004.38;;;10.84;34.36
70127;BME280;57491;42.694;23.314;2024-01-15T12:03:32;94006.41;;;10.69;35.09
70127;BME280;57491;42.694;23.314;2024-01-15T12:06:00;93994.50;;;10.48;35.77
70127;BME280;57491;42.694;23.314;2024-01-15T12:08:28;93990.31;;;10.34;36.41
70127;BME280;57491;42.694;23.314;2024-01-15T12:10:55;93993.13;;;10.19;36.18
70127;BME280;57491;42.694;23.314;2024-01-15T12:13:22;93984.78;;;10.17;36.25
70127;BME280;57491;42.694;23.314;2024-01-15T12:15:50;93985.16;;;10.21;37.07
70127;BME280;57491;42.694;23.314;2024-01-15T12:18:18;93969.38;;;9.96;36.92
70127;BME280;57491;42.694;23.314;2024-01-15T12:20:47;93971.59;;;9.86;37.67
70127;BME280;57491;42.694;23.314;2024-01-15T12:23:14;93988.97;;;9.79;38.79
70127;BME280;57491;42.694;23.314;2024-01-15T12:25:43;93984.97;;;9.83;38.92
70127;BME280;57491;42.694;23.314;2024-01-15T12:28:10;93956.81;;;9.67;39.60
70127;BME280;57491;42.694;23.314;2024-01-15T12:30:38;93979.75;;;9.83;39.12
70127;BME280;57491;42.694;23.314;2024-01-15T12:33:08;93981.97;;;9.73;38.83
70127;BME280;57491;42.694;23.314;2024-01-15T12:35:36;93965.41;;;9.61;37.20
70127;BME280;57491;42.694;23.314;2024-01-15T12:38:05;93968.78;;;9.61;37.41
70127;BME280;57491;42.694;23.314;2024-01-15T12:40:33;93961.59;;;9.57;39.25
70127;BME280;57491;42.694;23.314;2024-01-15T12:43:00;93960.63;;;9.58;38.60
70127;BME280;57491;42.694;23.314;2024-01-15T12:45:29;93955.22;;;9.46;38.37
70127;BME280;57491;42.694;23.314;2024-01-15T12:47:57;93956.22;;;9.52;39.93
70127;BME280;57491;42.694;23.314;2024-01-15T12:50:26;93955.03;;;9.54;40.00
70127;BME280;57491;42.694;23.314;2024-01-15T12:52:54;93962.22;;;9.59;39.34
70127;BME280;57491;42.694;23.314;2024-01-15T12:55:22;93952.63;;;9.53;38.11
70127;BME280;57491;42.694;23.314;2024-01-15T12:57:50;93953.81;;;9.44;39.57
70127;BME280;57491;42.694;23.314;2024-01-15T13:00:20;93942.84;;;9.35;39.61
70127;BME280;57491;42.694;23.314;2024-01-15T13:02:47;93945.03;;;9.31;40.79